createdAt,value
2017-02-09T00:00:10.567Z,69.86
2017-02-09T00:01:10.937Z,70.15
2017-02-09T00:02:10.917Z,70.43
2017-02-09T00:03:10.901Z,70.43
2017-02-09T00:04:10.497Z,70.53
2017-02-09T00:05:10.478Z,70.43
2017-02-09T00:06:10.847Z,70.05
2017-02-09T00:07:10.828Z,70.62
2017-02-09T00:08:10.425Z,69.86
2017-02-09T00:09:10.793Z,69.77
2017-02-09T00:10:10.776Z,70.15
2017-02-09T00:11:10.372Z,70.15
2017-02-09T00:12:10.742Z,70.24
2017-02-09T00:13:10.723Z,70.15
2017-02-09T00:14:10.320Z,70.24
2017-02-09T00:15:10.687Z,70.43
2017-02-09T00:16:10.669Z,70.53
2017-02-09T00:17:10.650Z,70.43
2017-02-09T00:18:10.634Z,70.34
2017-02-09T00:19:10.616Z,70.15
2017-02-09T00:20:10.211Z,70.05
2017-02-09T00:21:10.195Z,69.77
2017-02-09T00:22:10.563Z,69.86
2017-02-09T00:23:10.157Z,70.15
2017-02-09T00:24:10.528Z,70.05
2017-02-09T00:25:10.508Z,69.58
2017-02-09T00:26:10.493Z,69.3
2017-02-09T00:27:10.087Z,69.49
2017-02-09T00:28:10.071Z,69.3
2017-02-09T00:29:10.442Z,69.67
2017-02-09T00:30:10.036Z,69.58
2017-02-09T00:31:10.018Z,69.58
2017-02-09T00:32:10.386Z,70.15
2017-02-09T00:33:10.371Z,70.05
2017-02-09T00:34:09.962Z,70.15
2017-02-09T00:35:10.332Z,69.86
2017-02-09T00:36:09.929Z,69.58
2017-02-09T00:37:10.299Z,69.58
2017-02-09T00:38:10.281Z,69.86
2017-02-09T00:39:09.875Z,69.14
2017-02-09T00:40:10.244Z,68.95
2017-02-09T00:41:10.228Z,68.92
2017-02-09T00:42:10.209Z,68.16
2017-02-09T00:43:09.805Z,68.26
2017-02-09T00:44:10.175Z,68.16
2017-02-09T00:45:09.769Z,68.16
2017-02-09T00:46:09.752Z,68.44
2017-02-09T00:47:10.125Z,68.35
2017-02-09T00:48:09.721Z,68.54
2017-02-09T00:49:10.085Z,68.92
2017-02-09T00:50:10.067Z,68.92
2017-02-09T00:51:09.665Z,68.73
2017-02-09T00:52:09.647Z,68.92
2017-02-09T00:53:10.014Z,68.82
2017-02-09T00:54:09.611Z,69.39
2017-02-09T00:55:09.594Z,69.39
2017-02-09T00:56:09.963Z,69.49
2017-02-09T00:57:09.944Z,69.2
2017-02-09T00:58:09.544Z,68.73
2017-02-09T00:59:09.911Z,68.92
2017-02-09T01:00:09.891Z,69.01
2017-02-09T01:01:09.488Z,68.35
2017-02-09T01:02:09.858Z,68.35
2017-02-09T01:03:09.844Z,68.44
2017-02-09T01:04:09.435Z,69.01
2017-02-09T01:05:09.804Z,68.92
2017-02-09T01:06:09.791Z,68.73
2017-02-09T01:07:09.383Z,69.39
2017-02-09T01:08:09.752Z,69.49
2017-02-09T01:09:09.734Z,69.58
2017-02-09T01:10:09.718Z,69.39
2017-02-09T01:11:09.698Z,69.58
2017-02-09T01:12:09.681Z,69.49
2017-02-09T01:13:09.665Z,69.58
2017-02-09T01:14:09.646Z,69.39
2017-02-09T01:15:09.628Z,69.58
2017-02-09T01:16:09.613Z,69.3
2017-02-09T01:17:09.593Z,70.05
2017-02-09T01:18:09.188Z,70.34
2017-02-09T01:19:09.580Z,70.15
2017-02-09T01:20:09.539Z,69.77
2017-02-09T01:21:09.523Z,69.39
2017-02-09T01:22:09.116Z,69.77
2017-02-09T01:23:09.486Z,69.67
2017-02-09T01:24:09.469Z,69.49
2017-02-09T01:25:09.451Z,69.58
2017-02-09T01:26:09.432Z,69.49
2017-02-09T01:27:09.414Z,69.58
2017-02-09T01:28:09.397Z,69.39
2017-02-09T01:29:09.379Z,69.39
2017-02-09T01:30:09.361Z,69.39
2017-02-09T01:31:09.341Z,68.82
2017-02-09T01:32:09.330Z,68.44
2017-02-09T01:33:09.311Z,68.63
2017-02-09T01:34:09.290Z,69.11
2017-02-09T01:35:09.273Z,69.58
2017-02-09T01:36:09.257Z,69.58
2017-02-09T01:37:09.238Z,69.77
2017-02-09T01:38:09.221Z,69.58
2017-02-09T01:39:09.200Z,69.86
2017-02-09T01:40:09.185Z,69.58
2017-02-09T01:41:09.164Z,69.58
2017-02-09T01:42:09.146Z,69.58
2017-02-09T01:43:09.129Z,69.2
2017-02-09T01:44:08.726Z,69.49
2017-02-09T01:45:09.093Z,69.39
2017-02-09T01:46:09.079Z,69.58
2017-02-09T01:47:09.058Z,69.49
2017-02-09T01:48:08.654Z,69.67
2017-02-09T01:49:09.023Z,69.86
2017-02-09T01:50:09.005Z,69.58
2017-02-09T01:51:08.989Z,69.67
2017-02-09T01:52:08.969Z,69.77
2017-02-09T01:53:08.952Z,69.3
2017-02-09T01:54:08.934Z,69.86
2017-02-09T01:55:08.916Z,69.3
2017-02-09T01:56:08.899Z,69.49
2017-02-09T01:57:08.880Z,69.58
2017-02-09T01:58:08.864Z,69.77
2017-02-09T01:59:08.844Z,69.58
2017-02-09T02:00:08.440Z,69.67
2017-02-09T02:01:08.818Z,69.67
2017-02-09T02:02:08.792Z,69.49
2017-02-09T02:03:08.773Z,69.77
2017-02-09T02:04:08.752Z,69.58
2017-02-09T02:05:08.737Z,69.58
2017-02-09T02:06:08.719Z,70.05
2017-02-09T02:07:08.700Z,70.05
2017-02-09T02:08:08.683Z,70.05
2017-02-09T02:09:08.663Z,69.77
2017-02-09T02:10:08.647Z,70.34
2017-02-09T02:11:08.630Z,70.15
2017-02-09T02:12:08.225Z,70.05
2017-02-09T02:13:08.593Z,69.67
2017-02-09T02:14:08.574Z,69.67
2017-02-09T02:15:08.560Z,69.58
2017-02-09T02:16:08.539Z,69.39
2017-02-09T02:17:08.526Z,69.58
2017-02-09T02:18:08.502Z,69.58
2017-02-09T02:19:08.487Z,69.86
2017-02-09T02:20:08.478Z,70.05
2017-02-09T02:21:08.449Z,70.24
2017-02-09T02:22:08.431Z,70.53
2017-02-09T02:23:08.413Z,70.34
2017-02-09T02:24:08.396Z,70.53
2017-02-09T02:25:08.375Z,70.43
2017-02-09T02:26:08.358Z,70.34
2017-02-09T02:27:08.343Z,70.43
2017-02-09T02:28:08.321Z,70.53
2017-02-09T02:29:08.306Z,70.53
2017-02-09T02:30:08.289Z,70.53
2017-02-09T02:31:08.268Z,70.53
2017-02-09T02:32:08.251Z,70.43
2017-02-09T02:33:08.234Z,70.9
2017-02-09T02:34:08.215Z,70.81
2017-02-09T02:35:08.199Z,70.9
2017-02-09T02:36:08.179Z,71.37
2017-02-09T02:37:08.161Z,70.9
2017-02-09T02:38:08.144Z,70.43
2017-02-09T02:39:08.125Z,70.53
2017-02-09T02:40:08.112Z,70.53
2017-02-09T02:41:08.090Z,70.34
2017-02-09T02:42:08.074Z,70.43
2017-02-09T02:43:08.053Z,70.62
2017-02-09T02:44:07.647Z,70.53
2017-02-09T02:45:08.017Z,70.53
2017-02-09T02:46:07.997Z,70.9
2017-02-09T02:47:07.982Z,71.09
2017-02-09T02:48:07.963Z,70.81
2017-02-09T02:49:07.945Z,71.47
2017-02-09T02:50:07.926Z,71.47
2017-02-09T02:51:07.910Z,71
2017-02-09T02:52:07.896Z,71.28
2017-02-09T02:53:07.872Z,71.28
2017-02-09T02:54:07.854Z,70.81
2017-02-09T02:55:07.836Z,71.09
2017-02-09T02:56:07.819Z,70.62
2017-02-09T02:57:07.806Z,70.72
2017-02-09T02:58:07.783Z,70.9
2017-02-09T02:59:07.768Z,71
2017-02-09T03:00:07.748Z,70.53
2017-02-09T03:01:07.728Z,70.53
2017-02-09T03:02:07.713Z,70.72
2017-02-09T03:03:07.696Z,70.9
2017-02-09T03:04:07.679Z,70.62
2017-02-09T03:05:07.656Z,70.53
2017-02-09T03:06:07.639Z,71
2017-02-09T03:07:07.662Z,70.9
2017-02-09T03:08:07.216Z,70.62
2017-02-09T03:09:07.586Z,70.43
2017-02-09T03:10:07.569Z,70.9
2017-02-09T03:11:07.552Z,70.9
2017-02-09T03:12:07.531Z,70.72
2017-02-09T03:13:07.513Z,71.09
2017-02-09T03:14:07.495Z,70.81
2017-02-09T03:15:07.475Z,71
2017-02-09T03:16:07.459Z,71.28
2017-02-09T03:17:07.440Z,71.19
2017-02-09T03:18:07.425Z,71.09
2017-02-09T03:19:07.405Z,70.9
2017-02-09T03:20:07.387Z,70.9
2017-02-09T03:21:07.368Z,70.9
2017-02-09T03:22:07.352Z,70.9
2017-02-09T03:23:07.332Z,70.53
2017-02-09T03:24:07.316Z,70.62
2017-02-09T03:25:07.298Z,70.53
2017-02-09T03:26:07.279Z,70.53
2017-02-09T03:27:07.265Z,70.53
2017-02-09T03:28:07.244Z,70.9
2017-02-09T03:29:07.228Z,70.53
2017-02-09T03:30:07.208Z,70.43
2017-02-09T03:31:07.191Z,70.43
2017-02-09T03:32:07.188Z,70.34
2017-02-09T03:33:07.155Z,70.34
2017-02-09T03:34:07.136Z,70.34
2017-02-09T03:35:07.123Z,70.05
2017-02-09T03:36:07.101Z,70.15
2017-02-09T03:37:07.083Z,70.15
2017-02-09T03:38:07.064Z,69.58
2017-02-09T03:39:07.047Z,69.58
2017-02-09T03:40:07.034Z,69.77
2017-02-09T03:41:07.013Z,69.49
2017-02-09T03:42:06.999Z,69.58
2017-02-09T03:43:06.976Z,69.58
2017-02-09T03:44:06.957Z,69.49
2017-02-09T03:45:06.946Z,69.77
2017-02-09T03:46:06.921Z,69.77
2017-02-09T03:47:06.904Z,69.77
2017-02-09T03:48:06.887Z,69.96
2017-02-09T03:49:06.871Z,69.39
2017-02-09T03:50:06.851Z,69.11
2017-02-09T03:51:06.835Z,69.39
2017-02-09T03:52:06.815Z,69.77
2017-02-09T03:53:06.798Z,69.58
2017-02-09T03:54:06.780Z,69.58
2017-02-09T03:55:06.762Z,69.77
2017-02-09T03:56:06.744Z,69.77
2017-02-09T03:57:06.729Z,69.58
2017-02-09T03:58:06.709Z,69.58
2017-02-09T03:59:06.690Z,69.58
2017-02-09T04:00:06.675Z,69.58
2017-02-09T04:01:06.655Z,70.24
2017-02-09T04:02:06.636Z,69.77
2017-02-09T04:03:06.651Z,70.34
2017-02-09T04:04:06.601Z,70.34
2017-02-09T04:05:06.584Z,70.34
2017-02-09T04:06:06.565Z,70.62
2017-02-09T04:07:06.546Z,70.62
2017-02-09T04:08:06.530Z,70.62
2017-02-09T04:09:06.515Z,70.43
2017-02-09T04:10:06.492Z,70.43
2017-02-09T04:11:06.477Z,70.43
2017-02-09T04:12:06.458Z,70.15
2017-02-09T04:13:06.440Z,70.53
2017-02-09T04:14:06.427Z,70.62
2017-02-09T04:15:06.753Z,70.53
2017-02-09T04:16:06.385Z,70.53
2017-02-09T04:17:06.367Z,70.53
2017-02-09T04:18:06.348Z,70.34
2017-02-09T04:19:06.334Z,70.43
2017-02-09T04:20:06.316Z,70.62
2017-02-09T04:21:06.295Z,70.53
2017-02-09T04:22:06.285Z,70.72
2017-02-09T04:23:06.260Z,70.81
2017-02-09T04:24:06.243Z,70.34
2017-02-09T04:25:06.224Z,70.72
2017-02-09T04:26:06.205Z,70.72
2017-02-09T04:27:06.194Z,70.72
2017-02-09T04:28:06.176Z,70.43
2017-02-09T04:29:06.152Z,70.53
2017-02-09T04:30:06.136Z,70.72
2017-02-09T04:31:06.116Z,70.62
2017-02-09T04:32:05.712Z,70.53
2017-02-09T04:33:06.081Z,70.62
2017-02-09T04:34:06.062Z,70.43
2017-02-09T04:35:06.045Z,70.43
2017-02-09T04:36:06.028Z,70.43
2017-02-09T04:37:06.008Z,70.34
2017-02-09T04:38:05.990Z,70.15
2017-02-09T04:39:05.972Z,70.43
2017-02-09T04:40:05.954Z,70.62
2017-02-09T04:41:05.943Z,70.43
2017-02-09T04:42:05.919Z,70.53
2017-02-09T04:43:05.901Z,70.72
2017-02-09T04:44:05.882Z,70.43
2017-02-09T04:45:05.865Z,70.9
2017-02-09T04:46:05.849Z,70.9
2017-02-09T04:47:05.831Z,70.81
2017-02-09T04:48:05.812Z,71.09
2017-02-09T04:49:05.794Z,71.37
2017-02-09T04:50:05.776Z,71.28
2017-02-09T04:51:05.757Z,71.19
2017-02-09T04:52:05.740Z,71.47
2017-02-09T04:53:05.723Z,71.19
2017-02-09T04:54:05.702Z,71.19
2017-02-09T04:55:05.685Z,71.09
2017-02-09T04:56:05.666Z,71.09
2017-02-09T04:57:05.650Z,71.09
2017-02-09T04:58:05.632Z,71.09
2017-02-09T04:59:05.615Z,71.19
2017-02-09T05:00:05.598Z,71
2017-02-09T05:01:05.582Z,70.9
2017-02-09T05:02:05.559Z,71.47
2017-02-09T05:03:05.544Z,71.19
2017-02-09T05:04:05.525Z,71.28
2017-02-09T05:05:05.507Z,71
2017-02-09T05:06:05.489Z,70.9
2017-02-09T05:07:05.474Z,70.72
2017-02-09T05:08:05.454Z,70.62
2017-02-09T05:09:05.434Z,70.43
2017-02-09T05:10:05.417Z,70.72
2017-02-09T05:11:05.400Z,70.43
2017-02-09T05:12:05.380Z,70.9
2017-02-09T05:13:05.363Z,71.09
2017-02-09T05:14:05.346Z,70.9
2017-02-09T05:15:05.332Z,71
2017-02-09T05:16:05.314Z,71
2017-02-09T05:17:05.293Z,71.19
2017-02-09T05:18:05.276Z,71.09
2017-02-09T05:19:05.259Z,70.53
2017-02-09T05:20:05.238Z,70.81
2017-02-09T05:21:05.221Z,71.37
2017-02-09T05:22:05.202Z,71.28
2017-02-09T05:23:05.183Z,71.66
2017-02-09T05:24:04.781Z,71.28
2017-02-09T05:25:05.152Z,71.56
2017-02-09T05:26:05.134Z,71.28
2017-02-09T05:27:05.116Z,71.09
2017-02-09T05:28:05.096Z,71.19
2017-02-09T05:29:05.080Z,71.09
2017-02-09T05:30:05.058Z,71.19
2017-02-09T05:31:05.039Z,71.75
2017-02-09T05:32:05.023Z,71.75
2017-02-09T05:33:05.006Z,71.84
2017-02-09T05:34:04.989Z,71.84
2017-02-09T05:35:04.969Z,71.94
2017-02-09T05:36:04.949Z,71.84
2017-02-09T05:37:04.934Z,71.94
2017-02-09T05:38:04.917Z,71.94
2017-02-09T05:39:04.896Z,71.84
2017-02-09T05:40:04.879Z,71.75
2017-02-09T05:41:04.860Z,71.94
2017-02-09T05:42:04.840Z,72.79
2017-02-09T05:43:04.827Z,72.79
2017-02-09T05:44:04.807Z,72.13
2017-02-09T05:45:04.788Z,71.94
2017-02-09T05:46:04.771Z,72.6
2017-02-09T05:47:04.754Z,71.75
2017-02-09T05:48:04.734Z,72.03
2017-02-09T05:49:04.717Z,71.94
2017-02-09T05:50:04.699Z,72.03
2017-02-09T05:51:04.688Z,72.13
2017-02-09T05:52:04.663Z,71.56
2017-02-09T05:53:04.644Z,71.37
2017-02-09T05:54:04.629Z,71.19
2017-02-09T05:55:04.609Z,70.9
2017-02-09T05:56:04.590Z,71.19
2017-02-09T05:57:04.572Z,71.28
2017-02-09T05:58:04.556Z,71.56
2017-02-09T05:59:04.539Z,71.66
2017-02-09T06:00:04.520Z,71.94
2017-02-09T06:01:04.504Z,72.03
2017-02-09T06:02:04.483Z,71.84
2017-02-09T06:03:04.464Z,72.03
2017-02-09T06:04:04.447Z,71.75
2017-02-09T06:05:04.430Z,72.03
2017-02-09T06:06:04.411Z,71.94
2017-02-09T06:07:04.392Z,71.84
2017-02-09T06:08:04.374Z,72.03
2017-02-09T06:09:04.357Z,72.13
2017-02-09T06:10:04.339Z,72.03
2017-02-09T06:11:04.321Z,71.66
2017-02-09T06:12:04.312Z,71.84
2017-02-09T06:13:04.285Z,71.75
2017-02-09T06:14:04.266Z,72.03
2017-02-09T06:15:04.248Z,72.32
2017-02-09T06:16:04.232Z,72.79
2017-02-09T06:17:04.214Z,72.6
2017-02-09T06:18:04.194Z,72.6
2017-02-09T06:19:04.176Z,72.13
2017-02-09T06:20:04.158Z,72.03
2017-02-09T06:21:04.140Z,71.66
2017-02-09T06:22:04.122Z,71.66
2017-02-09T06:23:04.105Z,71.75
2017-02-09T06:24:04.087Z,72.03
2017-02-09T06:25:03.684Z,71.75
2017-02-09T06:26:04.050Z,72.03
2017-02-09T06:27:04.034Z,72.13
2017-02-09T06:28:04.015Z,71.66
2017-02-09T06:29:03.996Z,71.66
2017-02-09T06:30:03.977Z,72.03
2017-02-09T06:31:03.964Z,71.75
2017-02-09T06:32:03.945Z,71.94
2017-02-09T06:33:03.927Z,72.13
2017-02-09T06:34:03.521Z,72.79
2017-02-09T06:35:03.894Z,72.41
2017-02-09T06:36:03.870Z,72.6
2017-02-09T06:37:03.854Z,72.51
2017-02-09T06:38:03.836Z,72.6
2017-02-09T06:39:03.818Z,72.88
2017-02-09T06:40:03.801Z,73.17
2017-02-09T06:41:03.782Z,73.07
2017-02-09T06:42:03.764Z,72.69
2017-02-09T06:43:03.743Z,72.6
2017-02-09T06:44:03.732Z,72.88
2017-02-09T06:45:03.716Z,72.69
2017-02-09T06:46:03.695Z,72.79
2017-02-09T06:47:03.674Z,72.98
2017-02-09T06:48:03.655Z,72.79
2017-02-09T06:49:03.638Z,73.07
2017-02-09T06:50:03.618Z,73.36
2017-02-09T06:51:03.603Z,72.98
2017-02-09T06:52:03.584Z,73.36
2017-02-09T06:53:03.566Z,73.07
2017-02-09T06:54:03.547Z,73.26
2017-02-09T06:55:03.529Z,73.17
2017-02-09T06:56:03.511Z,73.17
2017-02-09T06:57:03.496Z,72.88
2017-02-09T06:58:03.475Z,73.17
2017-02-09T06:59:03.457Z,72.88
2017-02-09T07:00:03.437Z,73.17
2017-02-09T07:01:03.423Z,73.07
2017-02-09T07:02:03.403Z,72.79
2017-02-09T07:03:03.385Z,72.98
2017-02-09T07:04:03.367Z,72.88
2017-02-09T07:05:03.348Z,72.88
2017-02-09T07:06:03.330Z,72.88
2017-02-09T07:07:03.313Z,73.26
2017-02-09T07:08:03.295Z,73.07
2017-02-09T07:09:03.277Z,72.79
2017-02-09T07:10:03.258Z,72.79
2017-02-09T07:11:02.854Z,72.69
2017-02-09T07:12:03.225Z,72.51
2017-02-09T07:13:03.205Z,72.6
2017-02-09T07:14:02.803Z,72.69
2017-02-09T07:15:03.173Z,72.69
2017-02-09T07:16:03.149Z,72.6
2017-02-09T07:17:03.136Z,72.69
2017-02-09T07:18:03.117Z,72.6
2017-02-09T07:19:03.100Z,72.6
2017-02-09T07:20:03.078Z,72.51
2017-02-09T07:21:03.063Z,72.41
2017-02-09T07:22:03.050Z,72.88
2017-02-09T07:23:03.027Z,72.22
2017-02-09T07:24:03.007Z,72.03
2017-02-09T07:25:02.604Z,72.03
2017-02-09T07:26:02.972Z,71.75
2017-02-09T07:27:02.567Z,71.66
2017-02-09T07:28:02.939Z,71.28
2017-02-09T07:29:02.919Z,71.19
2017-02-09T07:30:02.902Z,70.72
2017-02-09T07:31:02.884Z,70.9
2017-02-09T07:32:02.868Z,70.9
2017-02-09T07:33:02.848Z,71
2017-02-09T07:34:02.834Z,70.81
2017-02-09T07:35:02.816Z,70.9
2017-02-09T07:36:02.797Z,71.47
2017-02-09T07:37:02.779Z,71.66
2017-02-09T07:38:02.762Z,71.28
2017-02-09T07:39:02.744Z,71.09
2017-02-09T07:40:02.725Z,71.28
2017-02-09T07:41:02.709Z,71.37
2017-02-09T07:42:02.691Z,71.19
2017-02-09T07:43:02.288Z,71.66
2017-02-09T07:44:02.655Z,71.66
2017-02-09T07:45:02.638Z,70.72
2017-02-09T07:46:02.621Z,71.28
2017-02-09T07:47:02.602Z,71
2017-02-09T07:48:02.586Z,70.72
2017-02-09T07:49:02.567Z,70.9
2017-02-09T07:50:02.551Z,70.72
2017-02-09T07:51:02.534Z,71.37
2017-02-09T07:52:02.515Z,70.81
2017-02-09T07:53:02.497Z,70.81
2017-02-09T07:54:02.480Z,70.56
2017-02-09T07:55:02.465Z,70.47
2017-02-09T07:56:02.447Z,70.47
2017-02-09T07:57:02.481Z,70
2017-02-09T07:58:02.411Z,70.09
2017-02-09T07:59:02.395Z,69.81
2017-02-09T08:00:02.375Z,69.43
2017-02-09T08:01:02.360Z,69.52
2017-02-09T08:02:02.342Z,69.62
2017-02-09T08:03:02.327Z,69.52
2017-02-09T08:04:02.308Z,69.71
2017-02-09T08:05:02.298Z,70
2017-02-09T08:06:02.275Z,69.52
2017-02-09T08:07:02.256Z,69.33
2017-02-09T08:08:02.254Z,69.43
2017-02-09T08:09:02.223Z,69.05
2017-02-09T08:10:02.209Z,69.05
2017-02-09T08:11:02.189Z,68.76
2017-02-09T08:12:02.474Z,68.67
2017-02-09T08:13:02.157Z,69.05
2017-02-09T08:14:02.139Z,69.14
2017-02-09T08:15:02.123Z,69.05
2017-02-09T08:16:02.105Z,68.48
2017-02-09T08:17:02.091Z,69.52
2017-02-09T08:18:02.069Z,68.76
2017-02-09T08:19:02.053Z,68.39
2017-02-09T08:20:02.037Z,67.91
2017-02-09T08:21:02.023Z,68.29
2017-02-09T08:22:02.003Z,67.63
2017-02-09T08:23:01.987Z,68.1
2017-02-09T08:24:01.979Z,67.82
2017-02-09T08:25:01.954Z,67.72
2017-02-09T08:26:01.941Z,67.35
2017-02-09T08:27:01.920Z,67.54
2017-02-09T08:28:01.904Z,67.16
2017-02-09T08:29:01.885Z,67.44
2017-02-09T08:30:01.871Z,67.07
2017-02-09T08:31:01.854Z,66.69
2017-02-09T08:32:01.838Z,67.16
2017-02-09T08:33:01.817Z,66.78
2017-02-09T08:34:01.803Z,66.59
2017-02-09T08:35:01.787Z,66.59
2017-02-09T08:36:01.770Z,66.41
2017-02-09T08:37:01.759Z,66.5
2017-02-09T08:38:01.738Z,66.5
2017-02-09T08:39:01.723Z,66.5
2017-02-09T08:40:01.704Z,66.31
2017-02-09T08:41:01.688Z,66.31
2017-02-09T08:42:01.671Z,66.88
2017-02-09T08:43:01.657Z,66.69
2017-02-09T08:44:01.644Z,66.41
2017-02-09T08:45:01.623Z,66.35
2017-02-09T08:46:01.606Z,66.44
2017-02-09T08:47:01.591Z,65.97
2017-02-09T08:48:01.595Z,66.35
2017-02-09T08:49:01.556Z,66.06
2017-02-09T08:50:01.540Z,65.4
2017-02-09T08:51:01.523Z,65.21
2017-02-09T08:52:01.507Z,64.92
2017-02-09T08:53:01.490Z,64.83
2017-02-09T08:54:01.474Z,64.64
2017-02-09T08:55:01.457Z,65.21
2017-02-09T08:56:01.441Z,65.21
2017-02-09T08:57:01.425Z,65.02
2017-02-09T08:58:01.409Z,65.4
2017-02-09T08:59:01.393Z,65.11
2017-02-09T09:00:01.377Z,64.83
2017-02-09T09:01:01.360Z,65.02
2017-02-09T09:02:01.344Z,64.92
2017-02-09T09:03:01.327Z,64.83
2017-02-09T09:04:01.311Z,64.83
2017-02-09T09:05:01.295Z,64.92
2017-02-09T09:06:01.280Z,64.73
2017-02-09T09:07:01.262Z,64.83
2017-02-09T09:08:01.247Z,65.11
2017-02-09T09:09:01.233Z,64.83
2017-02-09T09:10:01.215Z,64.54
2017-02-09T09:11:01.198Z,63.6
2017-02-09T09:12:01.189Z,62.94
2017-02-09T09:13:01.167Z,63.13
2017-02-09T09:14:01.149Z,63.32
2017-02-09T09:15:01.138Z,62.85
2017-02-09T09:16:01.123Z,63.13
2017-02-09T09:17:01.100Z,62.66
2017-02-09T09:18:01.088Z,63.13
2017-02-09T09:19:01.069Z,62.94
2017-02-09T09:20:01.060Z,62.85
2017-02-09T09:21:01.039Z,62.75
2017-02-09T09:22:01.023Z,62.66
2017-02-09T09:23:01.006Z,62.28
2017-02-09T09:24:00.991Z,62.94
2017-02-09T09:25:00.976Z,62.75
2017-02-09T09:26:00.958Z,62.37
2017-02-09T09:27:00.941Z,62.37
2017-02-09T09:28:00.925Z,61.99
2017-02-09T09:29:00.912Z,62.09
2017-02-09T09:30:00.893Z,61.33
2017-02-09T09:31:00.880Z,61.15
2017-02-09T09:32:00.861Z,61.24
2017-02-09T09:33:01.147Z,61.33
2017-02-09T09:34:00.831Z,61.15
2017-02-09T09:35:00.814Z,61.15
2017-02-09T09:36:00.799Z,61.18
2017-02-09T09:37:00.784Z,60.61
2017-02-09T09:38:00.769Z,60.52
2017-02-09T09:39:00.753Z,60.33
2017-02-09T09:40:00.738Z,59.57
2017-02-09T09:41:00.723Z,59.47
2017-02-09T09:42:00.707Z,59.66
2017-02-09T09:43:00.692Z,59.47
2017-02-09T09:44:00.679Z,59.19
2017-02-09T09:45:00.662Z,59.19
2017-02-09T09:46:00.647Z,59
2017-02-09T09:47:00.636Z,59.19
2017-02-09T09:48:00.615Z,59.19
2017-02-09T09:49:00.602Z,58.44
2017-02-09T09:50:00.585Z,58.44
2017-02-09T09:51:00.569Z,58.44
2017-02-09T09:52:00.555Z,58.15
2017-02-09T09:53:00.538Z,58.44
2017-02-09T09:54:00.525Z,58.06
2017-02-09T09:55:00.511Z,58.25
2017-02-09T09:56:00.495Z,58.53
2017-02-09T09:57:00.479Z,58.72
2017-02-09T09:58:00.463Z,58.15
2017-02-09T09:59:00.449Z,58.34
2017-02-09T10:00:00.433Z,58.72
2017-02-09T10:01:00.419Z,58.25
2017-02-09T10:02:00.403Z,58.87
2017-02-09T10:03:00.391Z,59.06
2017-02-09T10:04:00.373Z,59.38
2017-02-09T10:05:00.362Z,59.19
2017-02-09T10:06:00.343Z,58.91
2017-02-09T10:07:00.329Z,59.19
2017-02-09T10:08:00.312Z,59.19
2017-02-09T10:09:00.296Z,58.62
2017-02-09T10:10:00.282Z,58.44
2017-02-09T10:11:00.267Z,57.87
2017-02-09T10:12:00.251Z,57.96
2017-02-09T10:13:00.236Z,57.96
2017-02-09T10:14:00.223Z,58.25
2017-02-09T10:15:00.205Z,58.44
2017-02-09T10:16:00.192Z,58.25
2017-02-09T10:17:00.180Z,57.68
2017-02-09T10:18:00.162Z,57.68
2017-02-09T10:19:00.146Z,57.58
2017-02-09T10:20:00.132Z,57.2
2017-02-09T10:21:00.117Z,57.49
2017-02-09T10:22:00.101Z,57.68
2017-02-09T10:23:00.088Z,57.23
2017-02-09T10:24:00.072Z,56.76
2017-02-09T10:25:00.058Z,57.14
2017-02-09T10:26:00.044Z,56.48
2017-02-09T10:27:00.028Z,56.57
2017-02-09T10:28:00.015Z,56.85
2017-02-09T10:29:00.002Z,55.91
2017-02-09T10:29:59.984Z,56.1
2017-02-09T10:30:59.970Z,55.72
2017-02-09T10:31:59.957Z,55.25
2017-02-09T10:32:59.942Z,55.34
2017-02-09T10:33:59.928Z,54.68
2017-02-09T10:34:59.913Z,54.33
2017-02-09T10:35:59.898Z,53.57
2017-02-09T10:36:59.885Z,53.95
2017-02-09T10:37:59.871Z,53.57
2017-02-09T10:38:59.859Z,53.19
2017-02-09T10:39:59.846Z,53.66
2017-02-09T10:40:59.828Z,53.57
2017-02-09T10:41:59.814Z,53.36
2017-02-09T10:42:59.805Z,53.76
2017-02-09T10:43:59.788Z,53.57
2017-02-09T10:44:59.773Z,53.83
2017-02-09T10:45:59.760Z,53.85
2017-02-09T10:46:59.746Z,53.47
2017-02-09T10:47:59.733Z,53.57
2017-02-09T10:48:59.718Z,53.66
2017-02-09T10:49:59.708Z,53.76
2017-02-09T10:50:59.692Z,53.76
2017-02-09T10:51:59.679Z,53.66
2017-02-09T10:52:59.665Z,53.47
2017-02-09T10:53:59.651Z,52.53
2017-02-09T10:54:59.637Z,53.19
2017-02-09T10:55:59.623Z,53
2017-02-09T10:56:59.609Z,53.38
2017-02-09T10:57:59.597Z,52.72
2017-02-09T10:58:59.583Z,52.72
2017-02-09T10:59:59.569Z,52.72
2017-02-09T11:00:59.556Z,52.72
2017-02-09T11:01:59.541Z,52.34
2017-02-09T11:02:59.527Z,52.25
2017-02-09T11:03:59.515Z,52.15
2017-02-09T11:04:59.500Z,52.34
2017-02-09T11:05:59.488Z,52.62
2017-02-09T11:06:59.474Z,53.28
2017-02-09T11:07:59.464Z,53.36
2017-02-09T11:08:59.449Z,52.79
2017-02-09T11:09:59.435Z,53
2017-02-09T11:10:59.420Z,53.09
2017-02-09T11:11:59.405Z,53.38
2017-02-09T11:12:59.395Z,53
2017-02-09T11:13:59.376Z,53
2017-02-09T11:14:59.364Z,53.28
2017-02-09T11:15:59.353Z,52.88
2017-02-09T11:16:59.337Z,53.36
2017-02-09T11:17:59.324Z,53.45
2017-02-09T11:18:59.312Z,53.55
2017-02-09T11:19:59.297Z,53.36
2017-02-09T11:20:59.283Z,52.98
2017-02-09T11:21:59.270Z,53.45
2017-02-09T11:22:59.255Z,53.64
2017-02-09T11:23:59.255Z,53.83
2017-02-09T11:24:59.227Z,53.74
2017-02-09T11:25:59.213Z,53.64
2017-02-09T11:26:59.199Z,53.74
2017-02-09T11:27:59.186Z,53.55
2017-02-09T11:28:59.172Z,53.45
2017-02-09T11:29:59.158Z,53.45
2017-02-09T11:30:59.145Z,53.45
2017-02-09T11:31:59.130Z,53.55
2017-02-09T11:32:59.118Z,53.45
2017-02-09T11:33:59.102Z,53.36
2017-02-09T11:34:59.089Z,53.36
2017-02-09T11:35:59.075Z,53.45
2017-02-09T11:36:59.062Z,53.83
2017-02-09T11:37:59.047Z,53.55
2017-02-09T11:38:59.036Z,53.55
2017-02-09T11:39:59.018Z,53.17
2017-02-09T11:40:59.005Z,53.83
2017-02-09T11:41:58.990Z,54.68
2017-02-09T11:42:58.977Z,54.68
2017-02-09T11:43:58.961Z,54.49
2017-02-09T11:44:58.948Z,54.77
2017-02-09T11:45:58.937Z,54.96
2017-02-09T11:46:58.926Z,54.96
2017-02-09T11:47:58.903Z,55.15
2017-02-09T11:48:58.889Z,54.96
2017-02-09T11:49:58.875Z,54.77
2017-02-09T11:50:58.861Z,55.06
2017-02-09T11:51:58.846Z,55.34
2017-02-09T11:52:58.832Z,55.91
2017-02-09T11:53:58.826Z,56.38
2017-02-09T11:54:58.803Z,56.01
2017-02-09T11:55:58.792Z,56.01
2017-02-09T11:56:58.775Z,55.91
2017-02-09T11:57:58.761Z,56.1
2017-02-09T11:58:58.744Z,55.82
2017-02-09T11:59:58.731Z,56.2
2017-02-09T12:00:58.713Z,56.35
2017-02-09T12:01:58.701Z,56.45
2017-02-09T12:02:58.689Z,57.01
2017-02-09T12:03:58.672Z,57.2
2017-02-09T12:04:58.655Z,57.2
2017-02-09T12:05:58.640Z,57.11
2017-02-09T12:06:58.239Z,58.25
2017-02-09T12:07:58.611Z,58.06
2017-02-09T12:08:58.596Z,58.25
2017-02-09T12:09:58.579Z,58.34
2017-02-09T12:10:58.564Z,58.06
2017-02-09T12:11:58.549Z,58.06
2017-02-09T12:12:58.534Z,58.44
2017-02-09T12:13:58.868Z,58.34
2017-02-09T12:14:58.504Z,59
2017-02-09T12:15:58.488Z,58.06
2017-02-09T12:16:58.479Z,58.25
2017-02-09T12:17:58.457Z,58.06
2017-02-09T12:18:58.444Z,57.87
2017-02-09T12:19:58.427Z,58.06
2017-02-09T12:20:58.412Z,58.06
2017-02-09T12:21:58.398Z,58.34
2017-02-09T12:22:58.382Z,58.25
2017-02-09T12:23:58.364Z,58.34
2017-02-09T12:24:58.353Z,58.34
2017-02-09T12:25:58.334Z,58.62
2017-02-09T12:26:58.320Z,58.25
2017-02-09T12:27:58.307Z,58.53
2017-02-09T12:28:58.291Z,58.91
2017-02-09T12:29:58.273Z,58.62
2017-02-09T12:30:58.258Z,58.81
2017-02-09T12:31:58.241Z,58.91
2017-02-09T12:32:58.226Z,58.25
2017-02-09T12:33:58.210Z,58.06
2017-02-09T12:34:58.196Z,58.25
2017-02-09T12:35:58.179Z,58.34
2017-02-09T12:36:58.166Z,59
2017-02-09T12:37:58.148Z,58.44
2017-02-09T12:38:58.132Z,58.81
2017-02-09T12:39:58.120Z,58.62
2017-02-09T12:40:58.103Z,58.91
2017-02-09T12:41:58.085Z,58.25
2017-02-09T12:42:58.070Z,58.34
2017-02-09T12:43:58.054Z,58.53
2017-02-09T12:44:58.038Z,58.25
2017-02-09T12:45:58.022Z,58.34
2017-02-09T12:46:58.007Z,58.34
2017-02-09T12:47:58.000Z,58.25
2017-02-09T12:48:57.978Z,58.44
2017-02-09T12:49:57.964Z,58.06
2017-02-09T12:50:57.946Z,57.96
2017-02-09T12:51:57.930Z,58.34
2017-02-09T12:52:57.915Z,58.62
2017-02-09T12:53:57.900Z,58.25
2017-02-09T12:54:57.885Z,58.06
2017-02-09T12:55:57.868Z,58.62